sensor_id;sensor_type;location;lat;lon;timestamp;temperature;humidity
12704;DHT22;6416;52.182;7.650;2023-03-21T00:01:33;13.30;64.10
12704;DHT22;6416;52.182;7.650;2023-03-21T00:03:58;13.30;64.10
12704;DHT22;6416;52.182;7.650;2023-03-21T00:06:24;13.30;64.10
12704;DHT22;6416;52.182;7.650;2023-03-21T00:08:49;13.30;64.10
12704;DHT22;6416;52.182;7.650;2023-03-21T00:11:15;13.30;64.10
12704;DHT22;6416;52.182;7.650;2023-03-21T00:13:41;13.30;64.10
12704;DHT22;6416;52.182;7.650;2023-03-21T00:16:11;13.30;64.10
12704;DHT22;6416;52.182;7.650;2023-03-21T00:18:36;13.40;64.20
12704;DHT22;6416;52.182;7.650;2023-03-21T00:21:03;13.40;64.20
12704;DHT22;6416;52.182;7.650;2023-03-21T00:23:31;13.40;64.30
12704;DHT22;6416;52.182;7.650;2023-03-21T00:25:57;13.40;64.30
12704;DHT22;6416;52.182;7.650;2023-03-21T00:28:23;13.30;64.20
12704;DHT22;6416;52.182;7.650;2023-03-21T00:30:50;13.40;64.30
12704;DHT22;6416;52.182;7.650;2023-03-21T00:33:16;13.40;64.30
12704;DHT22;6416;52.182;7.650;2023-03-21T00:35:41;13.40;64.30
12704;DHT22;6416;52.182;7.650;2023-03-21T00:38:07;13.40;64.30
12704;DHT22;6416;52.182;7.650;2023-03-21T00:40:32;13.40;64.30
12704;DHT22;6416;52.182;7.650;2023-03-21T00:42:58;13.40;64.40
12704;DHT22;6416;52.182;7.650;2023-03-21T00:45:23;13.40;64.40
12704;DHT22;6416;52.182;7.650;2023-03-21T00:47:49;13.40;64.40
12704;DHT22;6416;52.182;7.650;2023-03-21T00:50:14;13.40;64.40
12704;DHT22;6416;52.182;7.650;2023-03-21T00:52:40;13.40;64.40
12704;DHT22;6416;52.182;7.650;2023-03-21T00:55:06;13.40;64.40
12704;DHT22;6416;52.182;7.650;2023-03-21T00:57:32;13.40;64.40
12704;DHT22;6416;52.182;7.650;2023-03-21T00:59:57;13.40;64.40
12704;DHT22;6416;52.182;7.650;2023-03-21T01:02:24;13.40;64.40
12704;DHT22;6416;52.182;7.650;2023-03-21T01:04:49;13.40;64.50
12704;DHT22;6416;52.182;7.650;2023-03-21T01:07:15;13.40;64.50
12704;DHT22;6416;52.182;7.650;2023-03-21T01:09:40;13.40;64.50
12704;DHT22;6416;52.182;7.650;2023-03-21T01:12:06;13.40;64.50
12704;DHT22;6416;52.182;7.650;2023-03-21T01:14:31;13.40;64.50
12704;DHT22;6416;52.182;7.650;2023-03-21T01:16:57;13.40;64.50
12704;DHT22;6416;52.182;7.650;2023-03-21T01:19:24;13.50;64.60
12704;DHT22;6416;52.182;7.650;2023-03-21T01:21:49;13.40;64.60
12704;DHT22;6416;52.182;7.650;2023-03-21T01:24:15;13.40;64.50
12704;DHT22;6416;52.182;7.650;2023-03-21T01:26:40;13.50;64.60
12704;DHT22;6416;52.182;7.650;2023-03-21T01:29:06;13.50;64.60
12704;DHT22;6416;52.182;7.650;2023-03-21T01:31:32;13.50;64.60
12704;DHT22;6416;52.182;7.650;2023-03-21T01:33:57;13.50;64.70
12704;DHT22;6416;52.182;7.650;2023-03-21T01:36:25;13.50;64.60
12704;DHT22;6416;52.182;7.650;2023-03-21T01:38:51;13.50;64.70
12704;DHT22;6416;52.182;7.650;2023-03-21T01:41:31;13.50;64.70
12704;DHT22;6416;52.182;7.650;2023-03-21T01:43:58;13.50;65.20
12704;DHT22;6416;52.182;7.650;2023-03-21T01:46:41;13.50;64.70
12704;DHT22;6416;52.182;7.650;2023-03-21T01:49:21;13.50;65.30
12704;DHT22;6416;52.182;7.650;2023-03-21T01:51:51;13.50;65.20
12704;DHT22;6416;52.182;7.650;2023-03-21T01:54:23;13.50;65.00
12704;DHT22;6416;52.182;7.650;2023-03-21T01:56:52;13.50;65.20
12704;DHT22;6416;52.182;7.650;2023-03-21T01:59:23;13.50;65.00
12704;DHT22;6416;52.182;7.650;2023-03-21T02:01:49;13.50;65.10
12704;DHT22;6416;52.182;7.650;2023-03-21T02:04:17;13.50;65.20
12704;DHT22;6416;52.182;7.650;2023-03-21T02:06:45;13.50;65.20
12704;DHT22;6416;52.182;7.650;2023-03-21T02:09:13;13.50;65.30
12704;DHT22;6416;52.182;7.650;2023-03-21T02:11:40;13.50;65.30
12704;DHT22;6416;52.182;7.650;2023-03-21T02:14:12;13.50;65.30
12704;DHT22;6416;52.182;7.650;2023-03-21T02:16:57;13.50;65.50
12704;DHT22;6416;52.182;7.650;2023-03-21T02:22:23;13.50;65.80
12704;DHT22;6416;52.182;7.650;2023-03-21T02:25:25;13.50;65.50
12704;DHT22;6416;52.182;7.650;2023-03-21T02:27:58;13.50;66.00
12704;DHT22;6416;52.182;7.650;2023-03-21T02:30:38;13.50;65.40
12704;DHT22;6416;52.182;7.650;2023-03-21T02:41:27;13.50;66.00
12704;DHT22;6416;52.182;7.650;2023-03-21T02:46:46;13.50;65.90
12704;DHT22;6416;52.182;7.650;2023-03-21T02:49:26;13.50;66.00
12704;DHT22;6416;52.182;7.650;2023-03-21T02:51:56;13.50;65.90
12704;DHT22;6416;52.182;7.650;2023-03-21T02:54:23;13.50;65.70
12704;DHT22;6416;52.182;7.650;2023-03-21T02:56:51;13.50;65.80
12704;DHT22;6416;52.182;7.650;2023-03-21T02:59:20;13.50;65.80
12704;DHT22;6416;52.182;7.650;2023-03-21T03:01:46;13.50;66.00
12704;DHT22;6416;52.182;7.650;2023-03-21T03:04:24;13.50;65.90
12704;DHT22;6416;52.182;7.650;2023-03-21T03:10:02;13.50;66.60
12704;DHT22;6416;52.182;7.650;2023-03-21T03:15:23;13.50;66.50
12704;DHT22;6416;52.182;7.650;2023-03-21T03:18:12;13.50;66.00
12704;DHT22;6416;52.182;7.650;2023-03-21T03:21:09;13.50;66.70
12704;DHT22;6416;52.182;7.650;2023-03-21T03:24:09;13.50;66.60
12704;DHT22;6416;52.182;7.650;2023-03-21T03:29:26;13.50;66.60
12704;DHT22;6416;52.182;7.650;2023-03-21T03:31:58;13.50;66.30
12704;DHT22;6416;52.182;7.650;2023-03-21T03:34:30;13.50;66.50
12704;DHT22;6416;52.182;7.650;2023-03-21T03:36:58;13.50;66.70
12704;DHT22;6416;52.182;7.650;2023-03-21T03:39:32;13.50;66.60
12704;DHT22;6416;52.182;7.650;2023-03-21T03:42:21;13.40;66.80
12704;DHT22;6416;52.182;7.650;2023-03-21T03:44:48;13.40;67.00
12704;DHT22;6416;52.182;7.650;2023-03-21T03:47:36;13.50;66.60
12704;DHT22;6416;52.182;7.650;2023-03-21T03:52:39;13.40;66.80
12704;DHT22;6416;52.182;7.650;2023-03-21T03:55:10;13.40;66.90
12704;DHT22;6416;52.182;7.650;2023-03-21T03:57:37;13.40;66.80
12704;DHT22;6416;52.182;7.650;2023-03-21T04:00:03;13.40;66.70
12704;DHT22;6416;52.182;7.650;2023-03-21T04:02:29;13.40;66.80
12704;DHT22;6416;52.182;7.650;2023-03-21T04:04:54;13.40;67.00
12704;DHT22;6416;52.182;7.650;2023-03-21T04:07:20;13.40;66.90
12704;DHT22;6416;52.182;7.650;2023-03-21T04:09:46;13.40;66.90
12704;DHT22;6416;52.182;7.650;2023-03-21T04:12:11;13.40;66.90
12704;DHT22;6416;52.182;7.650;2023-03-21T04:14:37;13.40;67.00
12704;DHT22;6416;52.182;7.650;2023-03-21T04:17:02;13.40;67.00
12704;DHT22;6416;52.182;7.650;2023-03-21T04:19:28;13.40;67.00
12704;DHT22;6416;52.182;7.650;2023-03-21T04:21:53;13.40;67.00
12704;DHT22;6416;52.182;7.650;2023-03-21T04:24:19;13.40;67.10
12704;DHT22;6416;52.182;7.650;2023-03-21T04:26:44;13.40;67.20
12704;DHT22;6416;52.182;7.650;2023-03-21T04:29:10;13.40;67.20
12704;DHT22;6416;52.182;7.650;2023-03-21T04:31:35;13.30;67.30
12704;DHT22;6416;52.182;7.650;2023-03-21T04:34:03;13.30;67.20
12704;DHT22;6416;52.182;7.650;2023-03-21T04:36:29;13.30;67.20
12704;DHT22;6416;52.182;7.650;2023-03-21T04:38:55;13.30;67.30
12704;DHT22;6416;52.182;7.650;2023-03-21T04:41:21;13.30;67.30
12704;DHT22;6416;52.182;7.650;2023-03-21T04:43:46;13.30;67.30
12704;DHT22;6416;52.182;7.650;2023-03-21T04:46:12;13.30;67.40
12704;DHT22;6416;52.182;7.650;2023-03-21T04:48:37;13.30;67.40
12704;DHT22;6416;52.182;7.650;2023-03-21T04:51:03;13.30;67.40
12704;DHT22;6416;52.182;7.650;2023-03-21T04:53:28;13.30;67.50
12704;DHT22;6416;52.182;7.650;2023-03-21T04:55:54;13.30;67.50
12704;DHT22;6416;52.182;7.650;2023-03-21T04:58:19;13.30;67.50
12704;DHT22;6416;52.182;7.650;2023-03-21T05:00:45;13.30;67.50
12704;DHT22;6416;52.182;7.650;2023-03-21T05:03:11;13.30;67.50
12704;DHT22;6416;52.182;7.650;2023-03-21T05:05:37;13.40;67.60
12704;DHT22;6416;52.182;7.650;2023-03-21T05:08:04;13.30;67.50
12704;DHT22;6416;52.182;7.650;2023-03-21T05:10:29;13.30;67.50
12704;DHT22;6416;52.182;7.650;2023-03-21T05:12:55;13.30;67.50
12704;DHT22;6416;52.182;7.650;2023-03-21T05:15:20;13.30;67.40
12704;DHT22;6416;52.182;7.650;2023-03-21T05:17:46;13.30;67.40
12704;DHT22;6416;52.182;7.650;2023-03-21T05:20:11;13.30;67.40
12704;DHT22;6416;52.182;7.650;2023-03-21T05:22:37;13.30;67.40
12704;DHT22;6416;52.182;7.650;2023-03-21T05:25:02;13.30;67.40
12704;DHT22;6416;52.182;7.650;2023-03-21T05:27:28;13.30;67.40
12704;DHT22;6416;52.182;7.650;2023-03-21T05:29:53;13.30;67.40
12704;DHT22;6416;52.182;7.650;2023-03-21T05:32:19;13.30;67.40
12704;DHT22;6416;52.182;7.650;2023-03-21T05:34:44;13.30;67.50
12704;DHT22;6416;52.182;7.650;2023-03-21T05:37:10;13.30;67.50
12704;DHT22;6416;52.182;7.650;2023-03-21T05:39:35;13.30;67.60
12704;DHT22;6416;52.182;7.650;2023-03-21T05:42:00;13.30;67.60
12704;DHT22;6416;52.182;7.650;2023-03-21T05:44:26;13.30;67.60
12704;DHT22;6416;52.182;7.650;2023-03-21T05:46:51;13.30;67.60
12704;DHT22;6416;52.182;7.650;2023-03-21T05:49:17;13.30;67.70
12704;DHT22;6416;52.182;7.650;2023-03-21T05:51:42;13.30;67.70
12704;DHT22;6416;52.182;7.650;2023-03-21T05:54:08;13.30;67.70
12704;DHT22;6416;52.182;7.650;2023-03-21T05:56:33;13.30;67.70
12704;DHT22;6416;52.182;7.650;2023-03-21T05:58:59;13.30;67.70
12704;DHT22;6416;52.182;7.650;2023-03-21T06:01:24;13.40;67.80
12704;DHT22;6416;52.182;7.650;2023-03-21T06:03:50;13.40;67.80
12704;DHT22;6416;52.182;7.650;2023-03-21T06:06:15;13.40;67.80
12704;DHT22;6416;52.182;7.650;2023-03-21T06:08:41;13.40;67.80
12704;DHT22;6416;52.182;7.650;2023-03-21T06:11:19;13.40;67.80
12704;DHT22;6416;52.182;7.650;2023-03-21T06:13:47;13.40;67.90
12704;DHT22;6416;52.182;7.650;2023-03-21T06:16:12;13.40;67.70
12704;DHT22;6416;52.182;7.650;2023-03-21T06:18:38;13.40;67.80
12704;DHT22;6416;52.182;7.650;2023-03-21T06:21:03;13.40;67.80
12704;DHT22;6416;52.182;7.650;2023-03-21T06:23:29;13.40;67.80
12704;DHT22;6416;52.182;7.650;2023-03-21T06:25:54;13.40;67.80
12704;DHT22;6416;52.182;7.650;2023-03-21T06:28:20;13.50;67.80
12704;DHT22;6416;52.182;7.650;2023-03-21T06:30:45;13.50;67.90
12704;DHT22;6416;52.182;7.650;2023-03-21T06:33:11;13.50;67.90
12704;DHT22;6416;52.182;7.650;2023-03-21T06:35:36;13.50;67.90
12704;DHT22;6416;52.182;7.650;2023-03-21T06:38:02;13.50;67.90
12704;DHT22;6416;52.182;7.650;2023-03-21T06:40:27;13.50;67.90
12704;DHT22;6416;52.182;7.650;2023-03-21T06:42:53;13.50;67.90
12704;DHT22;6416;52.182;7.650;2023-03-21T06:45:18;13.50;67.90
12704;DHT22;6416;52.182;7.650;2023-03-21T06:47:44;13.50;67.90
12704;DHT22;6416;52.182;7.650;2023-03-21T06:50:10;13.50;68.10
12704;DHT22;6416;52.182;7.650;2023-03-21T06:52:35;13.40;68.00
12704;DHT22;6416;52.182;7.650;2023-03-21T06:55:01;13.40;68.20
12704;DHT22;6416;52.182;7.650;2023-03-21T06:57:26;13.40;68.20
12704;DHT22;6416;52.182;7.650;2023-03-21T06:59:52;13.40;68.20
12704;DHT22;6416;52.182;7.650;2023-03-21T07:02:17;13.40;68.30
12704;DHT22;6416;52.182;7.650;2023-03-21T07:04:43;13.40;68.50
12704;DHT22;6416;52.182;7.650;2023-03-21T07:07:08;13.30;68.50
12704;DHT22;6416;52.182;7.650;2023-03-21T07:09:34;13.30;68.70
12704;DHT22;6416;52.182;7.650;2023-03-21T07:11:59;13.30;68.70
12704;DHT22;6416;52.182;7.650;2023-03-21T07:14:25;13.30;68.80
12704;DHT22;6416;52.182;7.650;2023-03-21T07:16:50;13.30;68.90
12704;DHT22;6416;52.182;7.650;2023-03-21T07:19:15;13.30;69.10
12704;DHT22;6416;52.182;7.650;2023-03-21T07:21:41;13.30;69.10
12704;DHT22;6416;52.182;7.650;2023-03-21T07:24:07;13.30;69.20
12704;DHT22;6416;52.182;7.650;2023-03-21T07:26:32;13.30;69.40
12704;DHT22;6416;52.182;7.650;2023-03-21T07:28:58;13.30;69.50
12704;DHT22;6416;52.182;7.650;2023-03-21T07:31:23;13.30;69.60
12704;DHT22;6416;52.182;7.650;2023-03-21T07:33:48;13.30;69.80
12704;DHT22;6416;52.182;7.650;2023-03-21T07:36:14;13.40;70.00
12704;DHT22;6416;52.182;7.650;2023-03-21T07:38:42;13.40;70.10
12704;DHT22;6416;52.182;7.650;2023-03-21T07:41:08;13.40;70.10
12704;DHT22;6416;52.182;7.650;2023-03-21T07:43:34;13.40;69.90
12704;DHT22;6416;52.182;7.650;2023-03-21T07:45:59;13.40;69.90
12704;DHT22;6416;52.182;7.650;2023-03-21T07:48:25;13.50;70.00
12704;DHT22;6416;52.182;7.650;2023-03-21T07:50:51;13.50;69.90
12704;DHT22;6416;52.182;7.650;2023-03-21T07:53:16;13.50;69.90
12704;DHT22;6416;52.182;7.650;2023-03-21T07:55:42;13.50;70.00
12704;DHT22;6416;52.182;7.650;2023-03-21T07:58:07;13.50;70.10
12704;DHT22;6416;52.182;7.650;2023-03-21T08:00:33;13.50;70.10
12704;DHT22;6416;52.182;7.650;2023-03-21T08:02:59;13.50;70.20
12704;DHT22;6416;52.182;7.650;2023-03-21T08:05:28;13.50;70.10
12704;DHT22;6416;52.182;7.650;2023-03-21T08:07:54;13.50;70.30
12704;DHT22;6416;52.182;7.650;2023-03-21T08:10:19;13.40;70.10
12704;DHT22;6416;52.182;7.650;2023-03-21T08:12:45;13.40;70.30
12704;DHT22;6416;52.182;7.650;2023-03-21T08:15:12;13.40;70.40
12704;DHT22;6416;52.182;7.650;2023-03-21T08:17:38;13.40;70.70
12704;DHT22;6416;52.182;7.650;2023-03-21T08:20:05;13.40;70.80
12704;DHT22;6416;52.182;7.650;2023-03-21T08:22:31;13.40;70.80
12704;DHT22;6416;52.182;7.650;2023-03-21T08:24:57;13.40;70.60
12704;DHT22;6416;52.182;7.650;2023-03-21T08:27:22;13.50;70.70
12704;DHT22;6416;52.182;7.650;2023-03-21T08:29:48;13.50;70.90
12704;DHT22;6416;52.182;7.650;2023-03-21T08:32:13;13.50;71.00
12704;DHT22;6416;52.182;7.650;2023-03-21T08:34:38;13.50;71.10
12704;DHT22;6416;52.182;7.650;2023-03-21T08:37:04;13.50;71.20
12704;DHT22;6416;52.182;7.650;2023-03-21T08:39:29;13.50;71.40
12704;DHT22;6416;52.182;7.650;2023-03-21T08:41:55;13.60;71.60
12704;DHT22;6416;52.182;7.650;2023-03-21T08:44:20;13.60;71.50
12704;DHT22;6416;52.182;7.650;2023-03-21T08:46:46;13.60;71.50
12704;DHT22;6416;52.182;7.650;2023-03-21T08:49:11;13.70;71.60
12704;DHT22;6416;52.182;7.650;2023-03-21T08:51:37;13.70;71.60
12704;DHT22;6416;52.182;7.650;2023-03-21T08:54:02;13.80;71.60
12704;DHT22;6416;52.182;7.650;2023-03-21T08:56:29;13.80;71.60
12704;DHT22;6416;52.182;7.650;2023-03-21T08:58:55;13.90;71.80
12704;DHT22;6416;52.182;7.650;2023-03-21T09:01:20;13.90;71.80
12704;DHT22;6416;52.182;7.650;2023-03-21T09:03:45;14.00;72.00
12704;DHT22;6416;52.182;7.650;2023-03-21T09:06:11;14.00;71.80
12704;DHT22;6416;52.182;7.650;2023-03-21T09:08:37;14.00;71.70
12704;DHT22;6416;52.182;7.650;2023-03-21T09:11:03;14.10;71.60
12704;DHT22;6416;52.182;7.650;2023-03-21T09:13:29;14.10;71.50
12704;DHT22;6416;52.182;7.650;2023-03-21T09:15:54;14.10;71.60
12704;DHT22;6416;52.182;7.650;2023-03-21T09:18:20;14.10;71.50
12704;DHT22;6416;52.182;7.650;2023-03-21T09:20:45;14.20;71.60
12704;DHT22;6416;52.182;7.650;2023-03-21T09:23:13;14.10;71.40
12704;DHT22;6416;52.182;7.650;2023-03-21T09:25:44;14.20;71.60
12704;DHT22;6416;52.182;7.650;2023-03-21T09:28:09;14.20;71.60
12704;DHT22;6416;52.182;7.650;2023-03-21T09:30:35;14.20;71.40
12704;DHT22;6416;52.182;7.650;2023-03-21T09:33:03;14.20;72.30
12704;DHT22;6416;52.182;7.650;2023-03-21T09:35:29;14.20;71.60
12704;DHT22;6416;52.182;7.650;2023-03-21T09:37:54;14.20;71.60
12704;DHT22;6416;52.182;7.650;2023-03-21T09:49:09;14.30;72.40
12704;DHT22;6416;52.182;7.650;2023-03-21T09:51:39;14.30;71.90
12704;DHT22;6416;52.182;7.650;2023-03-21T09:54:26;14.30;71.80
12704;DHT22;6416;52.182;7.650;2023-03-21T09:56:59;14.40;72.00
12704;DHT22;6416;52.182;7.650;2023-03-21T09:59:31;14.40;71.70
12704;DHT22;6416;52.182;7.650;2023-03-21T10:01:58;14.40;71.90
12704;DHT22;6416;52.182;7.650;2023-03-21T10:04:24;14.30;71.90
12704;DHT22;6416;52.182;7.650;2023-03-21T10:06:55;14.30;72.00
12704;DHT22;6416;52.182;7.650;2023-03-21T10:09:22;14.30;72.00
12704;DHT22;6416;52.182;7.650;2023-03-21T10:11:53;14.40;72.00
12704;DHT22;6416;52.182;7.650;2023-03-21T10:14:39;14.40;72.20
12704;DHT22;6416;52.182;7.650;2023-03-21T10:17:25;14.40;72.70
12704;DHT22;6416;52.182;7.650;2023-03-21T10:22:45;14.40;72.30
12704;DHT22;6416;52.182;7.650;2023-03-21T10:25:14;14.40;72.00
12704;DHT22;6416;52.182;7.650;2023-03-21T10:27:40;14.40;72.00
12704;DHT22;6416;52.182;7.650;2023-03-21T10:30:07;14.40;72.00
12704;DHT22;6416;52.182;7.650;2023-03-21T10:32:34;14.40;72.40
12704;DHT22;6416;52.182;7.650;2023-03-21T10:34:59;14.40;72.30
12704;DHT22;6416;52.182;7.650;2023-03-21T10:37:26;14.50;72.30
12704;DHT22;6416;52.182;7.650;2023-03-21T10:39:53;14.40;72.10
12704;DHT22;6416;52.182;7.650;2023-03-21T10:42:21;14.50;72.20
12704;DHT22;6416;52.182;7.650;2023-03-21T10:44:53;14.50;72.20
12704;DHT22;6416;52.182;7.650;2023-03-21T10:47:31;14.50;72.10
12704;DHT22;6416;52.182;7.650;2023-03-21T10:50:10;14.50;72.30
12704;DHT22;6416;52.182;7.650;2023-03-21T10:52:45;14.50;72.30
12704;DHT22;6416;52.182;7.650;2023-03-21T10:55:30;14.40;72.20
12704;DHT22;6416;52.182;7.650;2023-03-21T10:58:00;14.40;72.50
12704;DHT22;6416;52.182;7.650;2023-03-21T11:00:29;14.40;72.20
12704;DHT22;6416;52.182;7.650;2023-03-21T11:02:58;14.40;72.30
12704;DHT22;6416;52.182;7.650;2023-03-21T11:05:39;14.40;72.30
12704;DHT22;6416;52.182;7.650;2023-03-21T11:08:13;14.40;72.60
12704;DHT22;6416;52.182;7.650;2023-03-21T11:11:02;14.40;72.80
12704;DHT22;6416;52.182;7.650;2023-03-21T11:13:40;14.40;73.10
12704;DHT22;6416;52.182;7.650;2023-03-21T11:16:17;14.50;73.20
12704;DHT22;6416;52.182;7.650;2023-03-21T11:18:49;14.50;73.20
12704;DHT22;6416;52.182;7.650;2023-03-21T11:21:16;14.50;73.20
12704;DHT22;6416;52.182;7.650;2023-03-21T11:23:47;14.60;73.30
12704;DHT22;6416;52.182;7.650;2023-03-21T11:26:19;14.60;73.60
12704;DHT22;6416;52.182;7.650;2023-03-21T11:28:45;14.70;73.50
12704;DHT22;6416;52.182;7.650;2023-03-21T11:31:11;14.70;73.30
12704;DHT22;6416;52.182;7.650;2023-03-21T11:33:41;14.80;73.30
12704;DHT22;6416;52.182;7.650;2023-03-21T11:36:31;14.80;73.30
12704;DHT22;6416;52.182;7.650;2023-03-21T11:39:03;14.90;73.80
12704;DHT22;6416;52.182;7.650;2023-03-21T11:41:39;14.90;73.50
12704;DHT22;6416;52.182;7.650;2023-03-21T11:44:05;15.00;73.30
12704;DHT22;6416;52.182;7.650;2023-03-21T11:46:31;15.00;73.30
12704;DHT22;6416;52.182;7.650;2023-03-21T11:49:03;15.10;73.30
12704;DHT22;6416;52.182;7.650;2023-03-21T11:51:50;15.10;73.10
12704;DHT22;6416;52.182;7.650;2023-03-21T11:54:27;15.10;72.90
12704;DHT22;6416;52.182;7.650;2023-03-21T11:59:59;15.10;72.70
12704;DHT22;6416;52.182;7.650;2023-03-21T12:05:29;15.20;72.60
12704;DHT22;6416;52.182;7.650;2023-03-21T12:19:15;15.10;73.30
12704;DHT22;6416;52.182;7.650;2023-03-21T12:24:58;15.10;72.90
12704;DHT22;6416;52.182;7.650;2023-03-21T12:33:27;15.10;73.00
12704;DHT22;6416;52.182;7.650;2023-03-21T12:36:17;15.10;72.60
12704;DHT22;6416;52.182;7.650;2023-03-21T12:39:37;15.20;73.20
12704;DHT22;6416;52.182;7.650;2023-03-21T12:44:44;15.20;73.90
12704;DHT22;6416;52.182;7.650;2023-03-21T12:47:19;15.30;73.50
12704;DHT22;6416;52.182;7.650;2023-03-21T12:52:48;15.50;73.90
12704;DHT22;6416;52.182;7.650;2023-03-21T12:55:19;15.60;73.70
12704;DHT22;6416;52.182;7.650;2023-03-21T12:57:52;15.70;73.40
12704;DHT22;6416;52.182;7.650;2023-03-21T13:00:42;15.70;73.20
12704;DHT22;6416;52.182;7.650;2023-03-21T13:03:22;15.80;73.00
12704;DHT22;6416;52.182;7.650;2023-03-21T13:05:56;15.90;72.90
12704;DHT22;6416;52.182;7.650;2023-03-21T13:08:30;16.00;72.90
12704;DHT22;6416;52.182;7.650;2023-03-21T13:10:58;16.00;72.70
12704;DHT22;6416;52.182;7.650;2023-03-21T13:13:49;16.00;72.50
12704;DHT22;6416;52.182;7.650;2023-03-21T13:21:40;16.10;72.00
12704;DHT22;6416;52.182;7.650;2023-03-21T13:27:11;16.20;71.60
12704;DHT22;6416;52.182;7.650;2023-03-21T13:29:48;16.20;71.70
12704;DHT22;6416;52.182;7.650;2023-03-21T13:34:40;16.20;71.50
12704;DHT22;6416;52.182;7.650;2023-03-21T13:37:14;16.20;71.50
12704;DHT22;6416;52.182;7.650;2023-03-21T13:39:45;16.20;71.50
12704;DHT22;6416;52.182;7.650;2023-03-21T13:42:32;16.20;71.30
12704;DHT22;6416;52.182;7.650;2023-03-21T13:45:06;16.20;70.60
12704;DHT22;6416;52.182;7.650;2023-03-21T13:53:08;16.20;70.50
12704;DHT22;6416;52.182;7.650;2023-03-21T13:55:30;16.20;70.60
12704;DHT22;6416;52.182;7.650;2023-03-21T13:57:55;16.20;70.40
12704;DHT22;6416;52.182;7.650;2023-03-21T14:00:29;16.20;70.40
12704;DHT22;6416;52.182;7.650;2023-03-21T14:05:24;16.20;70.50
12704;DHT22;6416;52.182;7.650;2023-03-21T14:07:57;16.20;70.30
12704;DHT22;6416;52.182;7.650;2023-03-21T14:10:30;16.20;70.30
12704;DHT22;6416;52.182;7.650;2023-03-21T14:12:58;16.20;70.10
12704;DHT22;6416;52.182;7.650;2023-03-21T14:15:28;16.20;70.20
12704;DHT22;6416;52.182;7.650;2023-03-21T14:17:58;16.20;70.00
12704;DHT22;6416;52.182;7.650;2023-03-21T14:20:27;16.30;70.00
12704;DHT22;6416;52.182;7.650;2023-03-21T14:22:53;16.20;69.80
12704;DHT22;6416;52.182;7.650;2023-03-21T14:25:21;16.30;69.80
12704;DHT22;6416;52.182;7.650;2023-03-21T14:27:52;16.30;70.00
12704;DHT22;6416;52.182;7.650;2023-03-21T14:30:25;16.30;70.20
12704;DHT22;6416;52.182;7.650;2023-03-21T14:32:59;16.30;70.10
12704;DHT22;6416;52.182;7.650;2023-03-21T14:35:29;16.30;69.90
12704;DHT22;6416;52.182;7.650;2023-03-21T14:37:54;16.30;69.60
12704;DHT22;6416;52.182;7.650;2023-03-21T14:40:23;16.40;69.70
12704;DHT22;6416;52.182;7.650;2023-03-21T14:42:50;16.40;69.60
12704;DHT22;6416;52.182;7.650;2023-03-21T14:45:25;16.40;69.70
12704;DHT22;6416;52.182;7.650;2023-03-21T14:48:04;16.40;69.70
12704;DHT22;6416;52.182;7.650;2023-03-21T14:51:08;16.40;70.00
12704;DHT22;6416;52.182;7.650;2023-03-21T14:53:29;16.40;70.10
12704;DHT22;6416;52.182;7.650;2023-03-21T14:56:21;16.50;70.00
12704;DHT22;6416;52.182;7.650;2023-03-21T14:58:48;16.50;69.70
12704;DHT22;6416;52.182;7.650;2023-03-21T15:01:44;16.50;69.80
12704;DHT22;6416;52.182;7.650;2023-03-21T15:04:11;16.50;69.60
12704;DHT22;6416;52.182;7.650;2023-03-21T15:06:58;16.60;69.70
12704;DHT22;6416;52.182;7.650;2023-03-21T15:09:27;16.60;69.50
12704;DHT22;6416;52.182;7.650;2023-03-21T15:11:55;16.60;69.40
12704;DHT22;6416;52.182;7.650;2023-03-21T15:14:32;16.60;69.40
12704;DHT22;6416;52.182;7.650;2023-03-21T15:17:00;16.70;69.00
12704;DHT22;6416;52.182;7.650;2023-03-21T15:19:32;16.70;68.90
12704;DHT22;6416;52.182;7.650;2023-03-21T15:22:18;16.70;68.70
12704;DHT22;6416;52.182;7.650;2023-03-21T15:24:46;16.70;68.10
12704;DHT22;6416;52.182;7.650;2023-03-21T15:27:15;16.70;68.10
12704;DHT22;6416;52.182;7.650;2023-03-21T15:29:42;16.70;67.50
12704;DHT22;6416;52.182;7.650;2023-03-21T15:32:15;16.70;67.30
12704;DHT22;6416;52.182;7.650;2023-03-21T15:34:42;16.80;66.70
12704;DHT22;6416;52.182;7.650;2023-03-21T15:37:15;16.80;66.70
12704;DHT22;6416;52.182;7.650;2023-03-21T15:39:41;16.80;65.90
12704;DHT22;6416;52.182;7.650;2023-03-21T15:44:55;16.80;65.20
12704;DHT22;6416;52.182;7.650;2023-03-21T15:47:41;16.70;66.00
12704;DHT22;6416;52.182;7.650;2023-03-21T15:51:18;16.80;64.90
12704;DHT22;6416;52.182;7.650;2023-03-21T15:53:17;16.70;65.30
12704;DHT22;6416;52.182;7.650;2023-03-21T15:55:49;16.70;64.90
12704;DHT22;6416;52.182;7.650;2023-03-21T15:58:19;16.70;65.20
12704;DHT22;6416;52.182;7.650;2023-03-21T16:00:53;16.70;65.20
12704;DHT22;6416;52.182;7.650;2023-03-21T16:03:25;16.70;64.90
12704;DHT22;6416;52.182;7.650;2023-03-21T16:08:41;16.70;64.50
12704;DHT22;6416;52.182;7.650;2023-03-21T16:11:28;16.70;64.60
12704;DHT22;6416;52.182;7.650;2023-03-21T16:14:01;16.70;64.00
12704;DHT22;6416;52.182;7.650;2023-03-21T16:16:28;16.70;64.50
12704;DHT22;6416;52.182;7.650;2023-03-21T16:18:55;16.70;64.50
12704;DHT22;6416;52.182;7.650;2023-03-21T16:21:23;16.70;64.30
12704;DHT22;6416;52.182;7.650;2023-03-21T16:23:49;16.70;63.80
12704;DHT22;6416;52.182;7.650;2023-03-21T16:26:23;16.70;64.30
12704;DHT22;6416;52.182;7.650;2023-03-21T16:28:50;16.70;63.90
12704;DHT22;6416;52.182;7.650;2023-03-21T16:31:21;16.60;63.90
12704;DHT22;6416;52.182;7.650;2023-03-21T16:33:47;16.60;63.80
12704;DHT22;6416;52.182;7.650;2023-03-21T16:36:15;16.60;64.50
12704;DHT22;6416;52.182;7.650;2023-03-21T16:38:41;16.60;63.40
12704;DHT22;6416;52.182;7.650;2023-03-21T16:41:11;16.50;63.40
12704;DHT22;6416;52.182;7.650;2023-03-21T16:43:37;16.50;63.30
12704;DHT22;6416;52.182;7.650;2023-03-21T16:46:02;16.50;63.80
12704;DHT22;6416;52.182;7.650;2023-03-21T16:48:28;16.40;63.80
12704;DHT22;6416;52.182;7.650;2023-03-21T16:50:53;16.40;63.90
12704;DHT22;6416;52.182;7.650;2023-03-21T16:53:19;16.40;63.70
12704;DHT22;6416;52.182;7.650;2023-03-21T16:55:44;16.40;63.50
12704;DHT22;6416;52.182;7.650;2023-03-21T16:58:12;16.30;63.50
12704;DHT22;6416;52.182;7.650;2023-03-21T17:00:38;16.40;63.70
12704;DHT22;6416;52.182;7.650;2023-03-21T17:03:12;16.30;63.60
12704;DHT22;6416;52.182;7.650;2023-03-21T17:05:38;16.30;63.50
12704;DHT22;6416;52.182;7.650;2023-03-21T17:08:04;16.30;63.80
12704;DHT22;6416;52.182;7.650;2023-03-21T17:10:30;16.30;63.90
12704;DHT22;6416;52.182;7.650;2023-03-21T17:12:56;16.20;63.60
12704;DHT22;6416;52.182;7.650;2023-03-21T17:15:22;16.20;63.70
12704;DHT22;6416;52.182;7.650;2023-03-21T17:17:48;16.20;63.70
12704;DHT22;6416;52.182;7.650;2023-03-21T17:20:26;16.20;63.80
12704;DHT22;6416;52.182;7.650;2023-03-21T17:22:53;16.20;63.70
12704;DHT22;6416;52.182;7.650;2023-03-21T17:25:19;16.10;63.70
12704;DHT22;6416;52.182;7.650;2023-03-21T17:27:45;16.10;63.70
12704;DHT22;6416;52.182;7.650;2023-03-21T17:30:31;16.10;63.70
12704;DHT22;6416;52.182;7.650;2023-03-21T17:32:56;16.10;63.70